Time;durP1;ratioP1;P1;durP2;ratioP2;P2;SDS_P1;SDS_P2;PMS_P1;PMS_P2;Temp;Humidity;BMP_temperature;BMP_pressure;BME280_temperature;BME280_humidity;BME280_pressure;Samples;Min_cycle;Max_cycle;Signal;HPM_P1;HPM_P2
2022/03/10 20:25:50;;;;;;;2.40;2.30;;;;;;;-2.76;56.42;95153.09;2615981;54;20202;-80
2022/03/10 20:28:19;;;;;;;3.23;3.03;;;;;;;-3.58;57.80;95154.06;2615519;47;20156;-77
2022/03/10 20:30:48;;;;;;;2.97;2.83;;;;;;;-4.76;59.29;95053.84;2613463;47;20157;-76
2022/03/10 20:33:17;;;;;;;1.57;1.57;;;;;;;-5.47;59.35;94980.81;2615717;47;20192;-78
2022/03/10 20:35:47;;;;;;;1.37;1.37;;;;;;;-4.46;59.87;95149.97;2615938;47;20158;-80
2022/03/10 20:38:33;;;;;;;1.80;1.80;;;;;;;-5.84;60.23;94932.41;2615721;54;20155;-80
2022/03/10 20:41:32;;;;;;;1.40;1.40;;;;;;;-4.24;60.42;95161.69;2616289;47;20752;-79
2022/03/10 20:44:11;;;;;;;2.20;2.20;;;;;;;-7.70;59.69;94685.63;2616560;54;20693;-79
2022/03/10 20:46:57;;;;;;;3.93;1.37;;;;;;;-4.69;60.49;95138.06;2615490;47;20153;-78
2022/03/10 20:49:25;;;;;;;5.00;2.03;;;;;;;-4.90;60.24;95085.66;2616388;54;20151;-78
2022/03/10 20:51:54;;;;;;;4.13;2.43;;;;;;;-5.77;59.48;94980.66;2616613;47;20735;-81
2022/03/10 20:54:29;;;;;;;1.27;1.27;;;;;;;-7.69;59.96;94704.34;2616398;47;21297;-79
2022/03/10 21:00:14;;;;;;;1.50;1.50;;;;;;;-4.74;59.73;95080.94;2616454;47;20151;-78
2022/03/10 21:02:43;;;;;;;1.50;1.50;;;;;;;-4.10;59.32;95140.88;2616788;47;20160;-77
2022/03/10 21:05:34;;;;;;;;;;;;;;;;;;;;;
2022/03/10 21:08:04;;;;;;;1.80;1.80;;;;;;;-3.87;58.19;95154.75;2616713;47;20183;-79
2022/03/10 21:10:33;;;;;;;2.33;2.23;;;;;;;-4.10;58.79;95149.91;2616618;54;20303;-79
2022/03/10 21:13:19;;;;;;;0.80;0.80;;;;;;;-4.28;58.66;95147.47;2616666;54;20208;-79
2022/03/10 21:15:47;;;;;;;0.80;0.80;;;;;;;-4.71;58.81;95113.75;2615439;54;20182;-78
2022/03/10 21:21:27;;;;;;;1.77;1.77;;;;;;;-6.25;58.61;94883.66;2613637;39;20497;-78
2022/03/10 21:23:56;;;;;;;1.27;1.27;;;;;;;-4.98;58.80;95097.94;2614590;47;20221;-77
2022/03/10 21:26:27;;;;;;;1.27;1.27;;;;;;;-6.45;59.11;94903.75;2615315;54;20160;-78
2022/03/10 21:28:59;;;;;;;1.13;1.13;;;;;;;-4.84;59.34;95135.97;2616273;47;20158;-76
2022/03/10 21:31:28;;;;;;;1.30;1.30;;;;;;;-4.89;58.84;95114.00;2616784;39;20563;-77
2022/03/10 21:33:57;;;;;;;0.90;0.90;;;;;;;-4.18;58.16;95151.16;2616591;54;20668;-77
2022/03/10 21:36:32;;;;;;;6.23;2.27;;;;;;;-4.07;56.18;95071.34;2616489;54;20153;-78
2022/03/10 21:39:04;;;;;;;1.10;1.10;;;;;;;-3.22;55.25;95136.53;2616376;47;20151;-79
2022/03/10 21:41:39;;;;;;;1.47;1.47;;;;;;;-3.36;53.46;94944.88;2616081;47;20175;-79
2022/03/10 21:44:13;;;;;;;0.63;0.63;;;;;;;-2.38;52.68;95055.91;2616313;47;20164;-78
2022/03/10 21:46:42;;;;;;;0.93;0.93;;;;;;;-2.66;51.19;95129.03;2615934;54;20178;-76
2022/03/10 21:49:11;;;;;;;3.10;2.70;;;;;;;-3.91;53.48;95135.75;2616263;54;20156;-76
2022/03/10 21:51:42;;;;;;;1.70;1.67;;;;;;;-4.38;55.00;95136.94;2616073;54;20276;-76
2022/03/10 21:54:14;;;;;;;1.07;1.07;;;;;;;-4.97;56.62;95088.38;2616236;47;20157;-76
2022/03/10 21:56:46;;;;;;;1.20;1.20;;;;;;;-6.48;56.48;94893.78;2616035;47;20161;-78
2022/03/10 21:59:17;;;;;;;1.73;1.73;;;;;;;-4.85;57.14;95125.47;2616220;47;20157;-77
2022/03/10 22:01:46;;;;;;;0.80;0.80;;;;;;;-4.83;57.01;95070.41;2616188;47;20235;-77
2022/03/10 22:04:15;;;;;;;0.50;0.50;;;;;;;-3.41;54.80;95120.28;2616223;47;20165;-77
2022/03/10 22:06:44;;;;;;;1.13;1.13;;;;;;;-2.90;51.64;95064.63;2616320;39;20620;-77
2022/03/10 22:09:12;;;;;;;0.73;0.73;;;;;;;-1.65;50.55;95143.38;2615912;46;20172;-77
2022/03/10 22:11:41;;;;;;;1.23;1.23;;;;;;;-1.37;50.04;95138.75;2616066;54;20207;-77
2022/03/10 22:14:10;;;;;;;2.13;1.97;;;;;;;-0.99;52.67;95130.81;2616146;47;20166;-77
2022/03/10 22:16:42;;;;;;;4.23;1.37;;;;;;;-1.03;49.44;95119.38;2616081;47;20786;-77
2022/03/10 22:19:15;;;;;;;1.10;1.10;;;;;;;-0.75;46.19;95154.31;2616063;54;20859;-77
2022/03/10 22:21:46;;;;;;;0.60;0.60;;;;;;;-1.98;48.05;94867.13;2615909;54;20691;-78
2022/03/10 22:24:15;;;;;;;1.23;1.23;;;;;;;1.78;60.94;95153.66;2615984;54;20306;-78
2022/03/10 22:26:46;;;;;;;0.97;0.97;;;;;;;1.25;45.13;95149.03;2615705;47;20271;-78
2022/03/10 22:29:14;;;;;;;2.70;2.23;;;;;;;1.23;44.87;95132.16;2616178;47;20179;-77
2022/03/10 22:31:46;;;;;;;1.00;1.00;;;;;;;0.65;45.50;95101.31;2616211;47;20156;-77
2022/03/10 22:34:15;;;;;;;1.90;1.80;;;;;;;0.15;45.61;95148.28;2616115;47;20168;-77
2022/03/10 22:36:43;;;;;;;2.17;2.13;;;;;;;-0.11;46.06;95089.22;2616178;54;20185;-76
2022/03/10 22:39:12;;;;;;;1.40;1.33;;;;;;;0.74;47.65;95130.53;2615764;54;20182;-77
2022/03/10 22:41:47;;;;;;;1.30;1.30;;;;;;;3.86;60.15;95152.56;2615947;54;20165;-77
2022/03/10 22:44:18;;;;;;;1.23;1.23;;;;;;;5.16;57.72;95157.91;2616037;47;20160;-78
2022/03/10 22:46:50;;;;;;;2.27;2.17;;;;;;;4.49;41.05;95094.91;2615831;47;20173;-78
2022/03/10 22:49:18;;;;;;;3.93;2.10;;;;;;;3.30;39.86;95155.88;2616114;54;20160;-78
2022/03/10 22:54:43;;;;;;;2.03;1.93;;;;;;;1.59;43.02;95092.25;2616076;47;20187;-78
2022/03/10 22:57:12;;;;;;;1.33;1.30;;;;;;;1.63;43.59;95151.91;2616204;47;20168;-77
2022/03/10 22:59:41;;;;;;;1.00;1.00;;;;;;;1.41;42.63;95150.97;2615831;54;20165;-78
2022/03/10 23:02:12;;;;;;;1.53;1.53;;;;;;;2.41;51.00;95119.03;2615825;54;20291;-77
2022/03/10 23:07:33;;;;;;;1.63;1.63;;;;;;;5.37;50.12;95140.94;2615909;47;20275;-79
2022/03/10 23:10:06;;;;;;;1.17;1.17;;;;;;;5.41;49.30;95117.97;2615762;54;20153;-77
2022/03/10 23:12:37;;;;;;;1.97;1.50;;;;;;;5.82;49.38;95149.91;2615958;47;20696;-78
2022/03/10 23:15:09;;;;;;;3.23;2.43;;;;;;;5.78;46.34;95096.25;2613313;47;20161;-77
2022/03/10 23:17:41;;;;;;;5.03;1.73;;;;;;;5.93;45.87;95132.28;2614199;47;20161;-77
2022/03/10 23:20:13;;;;;;;1.93;1.83;;;;;;;5.64;44.27;95061.72;2615406;39;20842;-76
2022/03/10 23:22:41;;;;;;;2.60;2.00;;;;;;;6.46;46.25;95137.31;2615931;52;20156;-78
2022/03/10 23:25:11;;;;;;;2.47;2.30;;;;;;;4.46;36.26;95161.34;2615797;54;20188;-77
2022/03/10 23:27:40;;;;;;;2.63;2.33;;;;;;;2.44;39.34;95168.16;2614862;47;20264;-76
2022/03/10 23:30:19;;;;;;;1.90;1.80;;;;;;;2.04;44.03;95166.75;2615902;47;20194;-81
2022/03/10 23:33:33;;;;;;;13.53;2.00;;;;;;;-0.31;43.67;94811.38;2615935;54;20174;-80
2022/03/10 23:39:13;;;;;;;1.50;1.50;;;;;;;-0.86;45.78;95152.75;2613958;47;20180;-79
2022/03/10 23:42:00;;;;;;;2.37;2.23;;;;;;;-3.55;48.79;94939.03;2614678;47;20256;-78
2022/03/10 23:44:35;;;;;;;1.73;1.63;;;;;;;-1.92;50.79;95115.41;2614702;47;20162;-78
2022/03/10 23:47:19;;;;;;;0.80;0.80;;;;;;;-1.53;50.49;94988.88;2614462;47;20220;-78
2022/03/10 23:52:52;;;;;;;1.97;1.87;;;;;;;0.31;49.86;95002.63;2614317;47;20156;-78
2022/03/10 23:55:31;;;;;;;1.97;1.33;;;;;;;1.16;48.12;95116.28;2614437;47;20149;-79
2022/03/10 23:57:59;;;;;;;1.53;1.53;;;;;;;1.56;43.57;95163.19;2614167;54;20228;-75
